createdAt,value
2019-05-29T00:00:45.914Z,64.43
2019-05-29T00:01:53.785Z,64.55
2019-05-29T00:03:02.732Z,64.52
2019-05-29T00:04:12.286Z,64.64
2019-05-29T00:05:21.058Z,64.93
2019-05-29T00:06:28.965Z,64.78
2019-05-29T00:07:37.741Z,64.80
2019-05-29T00:08:45.613Z,64.90
2019-05-29T00:09:54.487Z,64.90
2019-05-29T00:11:02.581Z,65.10
2019-05-29T00:12:17.225Z,65.08
2019-05-29T00:13:21.405Z,64.99
2019-05-29T00:14:30.146Z,65.12
2019-05-29T00:15:38.109Z,65.19
2019-05-29T00:16:47.145Z,65.41
2019-05-29T00:17:54.953Z,65.17
2019-05-29T00:19:03.676Z,65.17
2019-05-29T00:20:12.732Z,65.06
2019-05-29T00:21:21.667Z,65.04
2019-05-29T00:22:29.790Z,65.09
2019-05-29T00:23:38.701Z,65.05
2019-05-29T00:24:47.007Z,65.27
2019-05-29T00:25:55.687Z,65.33
2019-05-29T00:27:03.577Z,65.12
2019-05-29T00:28:12.638Z,65.14
2019-05-29T00:29:20.748Z,65.05
2019-05-29T00:30:29.419Z,65.11
2019-05-29T00:31:37.817Z,65.04
2019-05-29T00:32:45.863Z,65.39
2019-05-29T00:33:53.954Z,65.28
2019-05-29T00:35:02.742Z,65.37
2019-05-29T00:36:12.279Z,65.33
2019-05-29T00:37:20.967Z,65.35
2019-05-29T00:38:28.975Z,65.28
2019-05-29T00:39:38.281Z,65.44
2019-05-29T00:40:46.861Z,65.23
2019-05-29T00:41:55.625Z,65.28
2019-05-29T00:43:03.851Z,65.37
2019-05-29T00:44:13.852Z,65.38
2019-05-29T00:45:22.226Z,65.18
2019-05-29T00:46:31.168Z,65.22
2019-05-29T00:47:39.180Z,65.33
2019-05-29T00:48:48.194Z,65.48
2019-05-29T00:49:56.281Z,65.67
2019-05-29T00:51:05.195Z,65.71
2019-05-29T00:52:14.289Z,65.70
2019-05-29T00:53:23.340Z,65.52
2019-05-29T00:54:31.648Z,65.52
2019-05-29T00:55:40.416Z,65.47
2019-05-29T00:56:48.985Z,65.54
2019-05-29T00:57:57.665Z,65.79
2019-05-29T00:59:05.711Z,65.46
2019-05-29T01:00:15.976Z,65.57
2019-05-29T01:01:24.704Z,65.64
2019-05-29T01:02:33.204Z,65.59
2019-05-29T01:03:41.438Z,65.67
2019-05-29T01:04:50.454Z,65.69
2019-05-29T01:05:58.384Z,65.98
2019-05-29T01:07:07.080Z,65.91
2019-05-29T01:08:16.430Z,65.91
2019-05-29T01:09:25.366Z,65.97
2019-05-29T01:10:33.189Z,65.81
2019-05-29T01:11:42.067Z,65.82
2019-05-29T01:12:50.000Z,65.97
2019-05-29T01:13:58.863Z,66.02
2019-05-29T01:15:09.500Z,66.01
2019-05-29T01:16:19.568Z,66.13
2019-05-29T01:17:27.647Z,66.28
2019-05-29T01:18:36.763Z,66.41
2019-05-29T01:19:45.256Z,66.38
2019-05-29T01:20:53.839Z,66.55
2019-05-29T01:22:01.793Z,66.61
2019-05-29T01:23:10.488Z,66.52
2019-05-29T01:24:18.650Z,66.60
2019-05-29T01:25:27.240Z,66.51
2019-05-29T01:26:35.145Z,66.51
2019-05-29T01:27:43.736Z,66.39
2019-05-29T01:28:51.689Z,66.62
2019-05-29T01:30:00.551Z,66.62
2019-05-29T01:31:08.589Z,66.95
2019-05-29T01:32:17.571Z,66.64
2019-05-29T01:33:25.755Z,66.76
2019-05-29T01:34:34.360Z,66.71
2019-05-29T01:35:42.693Z,66.62
2019-05-29T01:36:51.547Z,66.65
2019-05-29T01:37:59.332Z,66.72
2019-05-29T01:39:09.792Z,66.86
2019-05-29T01:40:21.962Z,67.03
2019-05-29T01:41:28.823Z,67.29
2019-05-29T01:42:37.006Z,67.67
2019-05-29T01:43:45.745Z,67.33
2019-05-29T01:45:07.187Z,67.57
2019-05-29T01:46:03.937Z,67.87
2019-05-29T01:47:11.991Z,67.81
2019-05-29T01:48:21.617Z,68.02
2019-05-29T01:49:29.810Z,68.00
2019-05-29T01:50:38.793Z,68.18
2019-05-29T01:51:46.951Z,68.22
2019-05-29T01:52:55.860Z,68.12
2019-05-29T01:54:03.949Z,67.60
2019-05-29T01:55:12.765Z,67.65
2019-05-29T01:56:21.916Z,67.59
2019-05-29T01:57:30.790Z,67.63
2019-05-29T01:58:38.804Z,67.83
2019-05-29T01:59:47.718Z,67.90
2019-05-29T02:00:55.691Z,68.04
2019-05-29T02:02:04.631Z,68.31
2019-05-29T02:03:12.725Z,68.54
2019-05-29T02:04:21.849Z,68.21
2019-05-29T02:05:30.432Z,68.14
2019-05-29T02:06:39.168Z,68.54
2019-05-29T02:07:47.444Z,68.41
2019-05-29T02:08:56.080Z,68.53
2019-05-29T02:10:05.686Z,68.49
2019-05-29T02:11:15.060Z,68.55
2019-05-29T02:12:24.146Z,68.33
2019-05-29T02:13:33.675Z,68.34
2019-05-29T02:14:41.761Z,68.59
2019-05-29T02:15:50.505Z,68.68
2019-05-29T02:16:58.477Z,68.35
2019-05-29T02:18:07.312Z,68.12
2019-05-29T02:19:15.717Z,68.13
2019-05-29T02:20:25.267Z,68.49
2019-05-29T02:21:33.543Z,68.39
2019-05-29T02:22:42.421Z,68.49
2019-05-29T02:23:50.231Z,68.40
2019-05-29T02:24:59.027Z,68.46
2019-05-29T02:26:07.029Z,68.43
2019-05-29T02:27:17.281Z,68.49
2019-05-29T02:28:26.789Z,68.63
2019-05-29T02:29:35.668Z,68.63
2019-05-29T02:30:43.827Z,68.62
2019-05-29T02:31:52.542Z,68.55
2019-05-29T02:33:00.860Z,68.42
2019-05-29T02:34:09.804Z,68.65
2019-05-29T02:35:20.104Z,68.91
2019-05-29T02:36:28.914Z,69.01
2019-05-29T02:37:37.131Z,69.30
2019-05-29T02:38:45.818Z,69.27
2019-05-29T02:39:53.824Z,69.53
2019-05-29T02:41:02.435Z,69.67
2019-05-29T02:42:10.820Z,69.55
2019-05-29T02:43:21.260Z,69.75
2019-05-29T02:44:29.718Z,69.85
2019-05-29T02:45:53.657Z,70.00
2019-05-29T02:46:48.286Z,70.17
2019-05-29T02:47:57.198Z,70.18
2019-05-29T02:49:05.354Z,70.08
2019-05-29T02:50:14.519Z,70.01
2019-05-29T02:51:24.231Z,69.99
2019-05-29T02:52:33.472Z,70.07
2019-05-29T02:53:41.471Z,70.24
2019-05-29T02:54:50.399Z,70.47
2019-05-29T02:55:58.526Z,70.47
2019-05-29T02:57:07.463Z,70.36
2019-05-29T02:58:15.432Z,70.63
2019-05-29T02:59:25.593Z,71.04
2019-05-29T03:00:53.506Z,70.74
2019-05-29T03:02:02.372Z,70.82
2019-05-29T03:03:10.668Z,70.75
2019-05-29T03:04:19.595Z,70.75
2019-05-29T03:05:28.143Z,70.38
2019-05-29T03:06:37.122Z,70.22
2019-05-29T03:07:45.259Z,70.28
2019-05-29T03:08:54.599Z,70.38
2019-05-29T03:10:02.817Z,70.20
2019-05-29T03:11:12.004Z,70.50
2019-05-29T03:12:20.326Z,70.33
2019-05-29T03:13:30.530Z,70.42
2019-05-29T03:14:38.905Z,70.71
2019-05-29T03:15:47.964Z,70.67
2019-05-29T03:16:55.883Z,70.71
2019-05-29T03:18:04.470Z,70.78
2019-05-29T03:19:12.773Z,70.73
2019-05-29T03:20:21.734Z,70.67
2019-05-29T03:21:30.655Z,70.73
2019-05-29T03:22:40.295Z,70.77
2019-05-29T03:23:48.422Z,70.91
2019-05-29T03:24:56.990Z,71.03
2019-05-29T03:26:05.362Z,70.87
2019-05-29T03:27:13.401Z,71.09
2019-05-29T03:28:21.494Z,71.18
2019-05-29T03:29:31.824Z,71.13
2019-05-29T03:30:45.676Z,71.15
2019-05-29T03:31:50.352Z,71.16
2019-05-29T03:32:58.294Z,71.06
2019-05-29T03:34:07.064Z,71.14
2019-05-29T03:35:15.290Z,71.32
2019-05-29T03:36:24.070Z,71.29
2019-05-29T03:37:32.521Z,71.37
2019-05-29T03:38:41.496Z,71.34
2019-05-29T03:39:49.557Z,71.31
2019-05-29T03:40:58.450Z,71.61
2019-05-29T03:42:06.554Z,71.72
2019-05-29T03:43:15.568Z,71.78
2019-05-29T03:44:23.588Z,71.79
2019-05-29T03:45:34.040Z,71.88
2019-05-29T03:46:45.708Z,71.90
2019-05-29T03:47:52.659Z,71.82
2019-05-29T03:49:00.770Z,71.81
2019-05-29T03:50:10.017Z,71.84
2019-05-29T03:51:18.224Z,71.83
2019-05-29T03:52:28.361Z,71.94
2019-05-29T03:53:38.495Z,71.90
2019-05-29T03:54:47.515Z,72.06
2019-05-29T03:55:55.511Z,71.81
2019-05-29T03:57:04.310Z,71.83
2019-05-29T03:58:12.726Z,71.79
2019-05-29T03:59:21.541Z,71.66
2019-05-29T04:00:36.110Z,71.71
2019-05-29T04:01:39.859Z,71.63
2019-05-29T04:02:47.787Z,71.65
2019-05-29T04:03:56.743Z,71.78
2019-05-29T04:05:06.468Z,71.77
2019-05-29T04:06:15.777Z,71.58
2019-05-29T04:07:24.119Z,71.66
2019-05-29T04:08:33.581Z,71.36
2019-05-29T04:09:42.075Z,71.36
2019-05-29T04:10:51.037Z,71.43
2019-05-29T04:11:59.289Z,71.52
2019-05-29T04:13:07.943Z,71.49
2019-05-29T04:14:17.045Z,71.42
2019-05-29T04:15:27.462Z,71.40
2019-05-29T04:16:57.560Z,71.47
2019-05-29T04:17:48.554Z,71.31
2019-05-29T04:18:58.337Z,71.45
2019-05-29T04:20:09.573Z,71.58
2019-05-29T04:21:20.683Z,71.66
2019-05-29T04:22:34.337Z,71.45
2019-05-29T04:23:47.872Z,71.28
2019-05-29T04:24:56.813Z,71.05
2019-05-29T04:26:05.110Z,70.67
2019-05-29T04:27:16.627Z,70.39
2019-05-29T04:28:24.982Z,70.27
2019-05-29T04:29:34.320Z,70.19
2019-05-29T04:30:42.464Z,70.09
2019-05-29T04:31:51.576Z,69.83
2019-05-29T04:32:59.416Z,69.88
2019-05-29T04:34:08.518Z,69.34
2019-05-29T04:35:16.668Z,69.30
2019-05-29T04:36:25.455Z,69.38
2019-05-29T04:37:34.356Z,68.92
2019-05-29T04:38:43.421Z,68.78
2019-05-29T04:39:51.729Z,69.12
2019-05-29T04:41:01.518Z,68.46
2019-05-29T04:42:09.706Z,67.93
2019-05-29T04:43:18.487Z,67.22
2019-05-29T04:44:26.257Z,66.72
2019-05-29T04:45:35.997Z,66.84
2019-05-29T04:46:45.122Z,67.00
2019-05-29T04:47:54.163Z,66.85
2019-05-29T04:49:02.079Z,66.45
2019-05-29T04:50:12.421Z,66.65
2019-05-29T04:51:23.123Z,66.70
2019-05-29T04:52:33.574Z,66.62
2019-05-29T04:53:41.876Z,65.90
2019-05-29T04:54:50.357Z,65.88
2019-05-29T04:55:58.336Z,66.25
2019-05-29T04:57:07.082Z,65.94
2019-05-29T04:58:15.200Z,65.15
2019-05-29T04:59:23.999Z,65.38
2019-05-29T05:00:33.063Z,65.13
2019-05-29T05:01:42.237Z,65.67
2019-05-29T05:02:49.949Z,65.08
2019-05-29T05:04:00.127Z,65.08
2019-05-29T05:05:08.960Z,64.44
2019-05-29T05:06:17.876Z,65.56
2019-05-29T05:07:25.920Z,64.61
2019-05-29T05:08:35.397Z,64.50
2019-05-29T05:09:43.629Z,63.99
2019-05-29T05:10:53.460Z,63.77
2019-05-29T05:12:01.784Z,64.01
2019-05-29T05:13:10.686Z,63.73
2019-05-29T05:14:19.073Z,63.94
2019-05-29T05:15:27.894Z,64.02
2019-05-29T05:16:39.926Z,64.33
2019-05-29T05:17:51.499Z,63.63
2019-05-29T05:18:59.261Z,64.45
2019-05-29T05:20:08.897Z,63.74
2019-05-29T05:21:16.676Z,63.09
2019-05-29T05:22:25.595Z,63.38
2019-05-29T05:23:36.511Z,63.72
2019-05-29T05:24:45.470Z,63.57
2019-05-29T05:25:53.180Z,63.45
2019-05-29T05:27:02.150Z,63.10
2019-05-29T05:28:10.486Z,63.22
2019-05-29T05:29:19.514Z,63.54
2019-05-29T05:30:27.902Z,63.13
2019-05-29T05:31:38.504Z,62.42
2019-05-29T05:32:48.631Z,62.93
2019-05-29T05:33:57.409Z,63.40
2019-05-29T05:35:09.471Z,62.54
2019-05-29T05:36:18.377Z,62.67
2019-05-29T05:37:27.744Z,62.46
2019-05-29T05:38:36.836Z,62.88
2019-05-29T05:39:45.094Z,62.55
2019-05-29T05:40:54.363Z,61.86
2019-05-29T05:42:02.583Z,62.98
2019-05-29T05:43:23.589Z,62.37
2019-05-29T05:44:21.247Z,62.45
2019-05-29T05:45:30.860Z,62.42
2019-05-29T05:46:39.390Z,61.75
2019-05-29T05:47:57.098Z,62.50
2019-05-29T05:48:58.190Z,61.96
2019-05-29T05:50:08.987Z,61.57
2019-05-29T05:51:17.066Z,62.15
2019-05-29T05:52:26.074Z,62.17
2019-05-29T05:53:35.303Z,62.05
2019-05-29T05:54:43.911Z,62.10
2019-05-29T05:55:52.349Z,62.32
2019-05-29T05:57:01.435Z,62.11
2019-05-29T05:58:09.603Z,61.76
2019-05-29T05:59:19.057Z,61.70
2019-05-29T06:00:35.889Z,61.45
2019-05-29T06:01:44.705Z,61.59
2019-05-29T06:02:52.652Z,61.91
2019-05-29T06:04:01.261Z,61.68
2019-05-29T06:05:09.648Z,61.68
2019-05-29T06:06:18.375Z,61.96
2019-05-29T06:07:26.585Z,62.31
2019-05-29T06:08:36.163Z,62.06
2019-05-29T06:09:44.567Z,61.70
2019-05-29T06:10:53.630Z,62.22
2019-05-29T06:12:02.036Z,62.18
2019-05-29T06:13:10.935Z,62.29
2019-05-29T06:14:19.397Z,62.20
2019-05-29T06:15:28.519Z,62.29
2019-05-29T06:16:36.771Z,62.51
2019-05-29T06:18:04.525Z,62.85
2019-05-29T06:18:55.553Z,62.64
2019-05-29T06:20:06.332Z,62.86
2019-05-29T06:21:14.609Z,63.26
2019-05-29T06:22:22.766Z,63.36
2019-05-29T06:23:31.151Z,63.45
2019-05-29T06:24:41.043Z,63.38
2019-05-29T06:25:51.899Z,63.56
2019-05-29T06:27:00.649Z,63.69
2019-05-29T06:28:08.800Z,62.99
2019-05-29T06:29:17.558Z,63.04
2019-05-29T06:30:26.152Z,62.75
2019-05-29T06:31:35.263Z,63.00
2019-05-29T06:32:44.665Z,63.25
2019-05-29T06:33:53.280Z,63.00
2019-05-29T06:35:01.245Z,63.12
2019-05-29T06:36:09.981Z,62.98
2019-05-29T06:37:17.887Z,62.86
2019-05-29T06:38:26.630Z,62.93
2019-05-29T06:39:35.564Z,63.12
2019-05-29T06:40:51.008Z,62.46
2019-05-29T06:41:59.050Z,62.40
2019-05-29T06:43:11.870Z,62.23
2019-05-29T06:44:19.244Z,62.21
2019-05-29T06:45:37.795Z,62.34
2019-05-29T06:46:45.847Z,62.86
2019-05-29T06:47:54.820Z,62.06
2019-05-29T06:49:02.897Z,62.27
2019-05-29T06:50:12.120Z,62.16
2019-05-29T06:51:19.870Z,62.05
2019-05-29T06:52:28.422Z,62.15
2019-05-29T06:53:37.744Z,62.18
2019-05-29T06:54:47.942Z,62.19
2019-05-29T06:55:57.637Z,61.83
2019-05-29T06:57:06.877Z,62.05
2019-05-29T06:58:14.893Z,62.01
2019-05-29T06:59:23.906Z,61.86
2019-05-29T07:00:35.660Z,61.94
2019-05-29T07:01:43.536Z,62.48
2019-05-29T07:02:53.149Z,62.70
2019-05-29T07:04:11.935Z,62.49
2019-05-29T07:05:11.760Z,62.12
2019-05-29T07:06:22.176Z,62.17
2019-05-29T07:07:30.195Z,61.91
2019-05-29T07:08:44.437Z,61.82
2019-05-29T07:09:48.865Z,61.69
2019-05-29T07:11:00.333Z,61.88
2019-05-29T07:12:08.317Z,61.94
2019-05-29T07:13:17.206Z,61.26
2019-05-29T07:14:24.982Z,61.98
2019-05-29T07:15:33.795Z,61.90
2019-05-29T07:16:49.980Z,61.48
2019-05-29T07:17:52.495Z,61.60
2019-05-29T07:20:12.079Z,62.00
2019-05-29T07:21:20.281Z,61.92
2019-05-29T07:22:29.163Z,61.52
2019-05-29T07:23:37.230Z,61.81
2019-05-29T07:24:46.922Z,61.28
2019-05-29T07:25:55.150Z,61.71
2019-05-29T07:27:03.859Z,61.26
2019-05-29T07:28:12.301Z,60.64
2019-05-29T07:29:21.035Z,61.50
2019-05-29T07:30:30.710Z,61.16
2019-05-29T07:31:39.600Z,61.26
2019-05-29T07:32:56.646Z,61.41
2019-05-29T07:33:58.571Z,60.33
2019-05-29T07:35:08.284Z,60.10
2019-05-29T07:36:16.792Z,60.83
2019-05-29T07:37:24.986Z,60.85
2019-05-29T07:38:33.688Z,60.40
2019-05-29T07:39:41.738Z,60.77
2019-05-29T07:40:50.537Z,60.79
2019-05-29T07:42:01.559Z,60.79
2019-05-29T07:43:10.327Z,60.96
2019-05-29T07:44:18.218Z,60.59
2019-05-29T07:45:27.209Z,60.35
2019-05-29T07:46:35.540Z,60.98
2019-05-29T07:47:44.804Z,60.50
2019-05-29T07:48:52.856Z,60.17
2019-05-29T07:50:04.643Z,59.95
2019-05-29T07:51:12.621Z,59.48
2019-05-29T07:52:21.384Z,59.19
2019-05-29T07:53:29.204Z,58.76
2019-05-29T07:54:39.837Z,59.50
2019-05-29T07:55:49.021Z,59.35
2019-05-29T07:56:58.032Z,59.68
2019-05-29T07:58:09.183Z,59.64
2019-05-29T07:59:18.080Z,59.66
2019-05-29T08:00:35.101Z,59.59
2019-05-29T08:01:36.727Z,59.48
2019-05-29T08:02:45.385Z,59.51
2019-05-29T08:03:54.027Z,59.82
2019-05-29T08:05:02.329Z,60.06
2019-05-29T08:06:12.839Z,59.61
2019-05-29T08:07:21.047Z,58.91
2019-05-29T08:08:29.958Z,59.12
2019-05-29T08:09:39.216Z,58.80
2019-05-29T08:10:49.660Z,59.15
2019-05-29T08:11:57.736Z,59.23
2019-05-29T08:13:06.721Z,59.55
2019-05-29T08:14:14.594Z,59.04
2019-05-29T08:15:23.501Z,58.98
2019-05-29T08:16:31.783Z,58.83
2019-05-29T08:17:42.076Z,58.66
2019-05-29T08:18:52.840Z,58.82
2019-05-29T08:20:06.781Z,58.65
2019-05-29T08:21:10.922Z,58.78
2019-05-29T08:22:33.243Z,58.74
2019-05-29T08:23:29.819Z,58.60
2019-05-29T08:24:38.719Z,58.13
2019-05-29T08:25:47.638Z,58.47
2019-05-29T08:26:56.722Z,57.88
2019-05-29T08:28:05.115Z,58.38
2019-05-29T08:29:13.930Z,58.65
2019-05-29T08:30:22.928Z,58.66
2019-05-29T08:31:32.243Z,58.65
2019-05-29T08:32:40.855Z,57.88
2019-05-29T08:33:51.218Z,57.79
2019-05-29T08:34:59.510Z,57.75
2019-05-29T08:36:08.421Z,58.21
2019-05-29T08:37:16.407Z,58.03
2019-05-29T08:38:25.323Z,57.42
2019-05-29T08:39:36.882Z,58.07
2019-05-29T08:40:43.849Z,58.24
2019-05-29T08:42:19.340Z,57.67
2019-05-29T08:43:02.436Z,57.33
2019-05-29T08:44:10.504Z,57.27
2019-05-29T08:45:20.283Z,57.23
2019-05-29T08:46:28.457Z,57.39
2019-05-29T08:47:37.540Z,57.20
2019-05-29T08:48:45.941Z,57.00
2019-05-29T08:49:55.031Z,57.03
2019-05-29T08:51:03.238Z,57.09
2019-05-29T08:52:12.728Z,56.96
2019-05-29T08:53:20.909Z,57.12
2019-05-29T08:54:29.740Z,56.86
2019-05-29T08:55:42.041Z,57.04
2019-05-29T08:56:50.958Z,56.53
2019-05-29T08:57:58.907Z,56.81
2019-05-29T08:59:07.618Z,56.92
2019-05-29T09:00:19.594Z,57.02
2019-05-29T09:01:28.549Z,56.75
2019-05-29T09:02:36.618Z,56.75
2019-05-29T09:03:46.736Z,56.79
2019-05-29T09:04:55.193Z,56.46
2019-05-29T09:06:08.860Z,56.58
2019-05-29T09:07:14.011Z,56.46
2019-05-29T09:08:22.833Z,56.33
2019-05-29T09:09:30.760Z,56.01
2019-05-29T09:10:39.825Z,56.28
2019-05-29T09:11:47.973Z,56.47
2019-05-29T09:13:04.725Z,56.07
2019-05-29T09:14:07.213Z,56.17
2019-05-29T09:15:21.066Z,56.35
2019-05-29T09:16:27.254Z,56.95
2019-05-29T09:17:36.363Z,56.44
2019-05-29T09:18:44.522Z,56.58
2019-05-29T09:19:53.675Z,56.47
2019-05-29T09:21:04.038Z,56.71
2019-05-29T09:22:13.755Z,56.51
2019-05-29T09:23:23.307Z,56.11
2019-05-29T09:24:32.224Z,55.85
2019-05-29T09:25:40.307Z,55.79
2019-05-29T09:26:49.640Z,56.07
2019-05-29T09:27:57.948Z,55.90
2019-05-29T09:29:06.734Z,55.46
2019-05-29T09:30:16.674Z,55.57
2019-05-29T09:31:26.172Z,55.74
2019-05-29T09:32:49.487Z,55.96
2019-05-29T09:33:45.163Z,56.15
2019-05-29T09:34:53.668Z,56.06
2019-05-29T09:36:03.039Z,55.82
2019-05-29T09:37:11.000Z,55.69
2019-05-29T09:38:20.964Z,55.68
2019-05-29T09:39:29.256Z,55.99
2019-05-29T09:40:38.415Z,55.98
2019-05-29T09:41:46.771Z,56.31
2019-05-29T09:42:55.458Z,56.38
2019-05-29T09:44:03.509Z,56.49
2019-05-29T09:45:12.918Z,56.50
2019-05-29T09:46:21.900Z,56.46
2019-05-29T09:47:31.230Z,56.78
2019-05-29T09:48:49.299Z,57.11
2019-05-29T09:49:50.422Z,57.10
2019-05-29T09:50:58.454Z,57.26
2019-05-29T09:52:08.022Z,57.36
2019-05-29T09:53:15.894Z,57.50
2019-05-29T09:54:28.411Z,57.29
2019-05-29T09:55:36.517Z,57.56
2019-05-29T09:56:45.547Z,57.78
2019-05-29T09:57:54.118Z,57.69
2019-05-29T09:59:04.121Z,57.71
2019-05-29T10:00:13.059Z,57.63
2019-05-29T10:01:24.371Z,57.65
2019-05-29T10:02:31.576Z,57.46
2019-05-29T10:03:40.444Z,57.38
2019-05-29T10:04:48.535Z,57.55
2019-05-29T10:05:59.366Z,57.71
2019-05-29T10:07:07.471Z,57.35
2019-05-29T10:08:17.137Z,57.26
2019-05-29T10:09:25.360Z,57.38
2019-05-29T10:10:34.083Z,57.30
2019-05-29T10:11:42.353Z,57.63
2019-05-29T10:12:51.204Z,57.64
2019-05-29T10:14:00.440Z,57.44
2019-05-29T10:15:11.414Z,57.48
2019-05-29T10:16:19.223Z,58.01
2019-05-29T10:17:28.176Z,58.05
2019-05-29T10:18:36.047Z,57.70
2019-05-29T10:19:44.896Z,57.37
2019-05-29T10:20:53.201Z,57.35
2019-05-29T10:22:04.017Z,57.61
2019-05-29T10:23:13.527Z,57.02
2019-05-29T10:24:22.158Z,56.73
2019-05-29T10:25:30.360Z,56.89
2019-05-29T10:26:38.952Z,56.68
2019-05-29T10:27:47.463Z,56.81
2019-05-29T10:30:08.515Z,56.14
2019-05-29T10:31:17.653Z,55.62
2019-05-29T10:32:25.769Z,55.69
2019-05-29T10:33:34.659Z,55.40
2019-05-29T10:34:38.778Z,56.59
2019-05-29T10:34:42.671Z,55.74
2019-05-29T10:35:54.804Z,55.56
2019-05-29T10:37:01.354Z,55.74
2019-05-29T10:38:10.455Z,55.43
2019-05-29T10:39:18.653Z,55.35
2019-05-29T10:40:27.458Z,55.56
2019-05-29T10:41:35.822Z,55.47
2019-05-29T10:42:45.156Z,55.55
2019-05-29T10:43:53.406Z,55.52
2019-05-29T10:45:02.622Z,55.18
2019-05-29T10:46:10.871Z,55.09
2019-05-29T10:47:19.877Z,55.47
2019-05-29T10:48:27.829Z,55.82
2019-05-29T10:49:36.846Z,55.91
2019-05-29T10:50:47.868Z,55.96
2019-05-29T10:52:12.882Z,55.97
2019-05-29T10:53:05.084Z,55.94
2019-05-29T10:54:13.964Z,55.80
2019-05-29T10:55:24.670Z,55.99
2019-05-29T10:56:33.688Z,56.17
2019-05-29T10:57:41.776Z,56.41
2019-05-29T10:58:56.458Z,56.40
2019-05-29T11:00:00.580Z,56.41
2019-05-29T11:01:09.370Z,56.21
2019-05-29T11:02:17.545Z,56.05
2019-05-29T11:03:26.498Z,56.07
2019-05-29T11:04:34.618Z,56.17
2019-05-29T11:05:43.339Z,55.70
2019-05-29T11:06:52.429Z,55.99
2019-05-29T11:08:02.346Z,56.24
2019-05-29T11:09:10.612Z,56.32
2019-05-29T11:10:19.925Z,56.43
2019-05-29T11:11:27.802Z,56.17
2019-05-29T11:12:39.278Z,56.32
2019-05-29T11:13:46.704Z,56.64
2019-05-29T11:14:55.248Z,56.73
2019-05-29T11:16:03.187Z,56.75
2019-05-29T11:17:12.464Z,56.56
2019-05-29T11:18:20.407Z,56.59
2019-05-29T11:19:29.413Z,56.61
2019-05-29T11:20:38.187Z,56.14
2019-05-29T11:21:48.070Z,56.53
2019-05-29T11:22:57.789Z,56.28
2019-05-29T11:24:07.392Z,56.24
2019-05-29T11:25:22.410Z,56.35
2019-05-29T11:26:26.161Z,56.43
2019-05-29T11:27:34.301Z,56.45
2019-05-29T11:28:43.259Z,56.45
2019-05-29T11:29:53.260Z,56.45
2019-05-29T11:31:06.081Z,56.28
2019-05-29T11:32:12.293Z,56.15
2019-05-29T11:33:20.719Z,56.35
2019-05-29T11:34:28.977Z,55.68
2019-05-29T11:35:38.174Z,55.53
2019-05-29T11:36:46.249Z,55.72
2019-05-29T11:37:56.479Z,55.85
2019-05-29T11:39:06.555Z,55.94
2019-05-29T11:40:15.943Z,55.99
2019-05-29T11:41:26.617Z,55.98
2019-05-29T11:42:34.498Z,55.93
2019-05-29T11:43:42.764Z,55.68
2019-05-29T11:44:53.309Z,55.88
2019-05-29T11:46:01.946Z,56.12
2019-05-29T11:47:10.814Z,56.32
2019-05-29T11:48:18.831Z,56.39
2019-05-29T11:49:27.585Z,56.26
2019-05-29T11:50:35.889Z,56.13
2019-05-29T11:51:44.676Z,56.09
2019-05-29T11:52:54.421Z,56.18
2019-05-29T11:54:03.265Z,56.15
2019-05-29T11:55:11.974Z,56.36
2019-05-29T11:56:20.835Z,56.33
2019-05-29T11:57:28.919Z,56.17
2019-05-29T11:58:37.834Z,56.19
2019-05-29T11:59:45.748Z,56.35
2019-05-29T12:00:55.061Z,56.30
2019-05-29T12:02:03.583Z,56.35
2019-05-29T12:03:12.683Z,56.14
2019-05-29T12:04:26.302Z,56.23
2019-05-29T12:05:31.366Z,56.45
2019-05-29T12:06:39.335Z,56.60
2019-05-29T12:07:48.213Z,56.63
2019-05-29T12:08:57.866Z,56.45
2019-05-29T12:10:09.747Z,56.32
2019-05-29T12:11:18.174Z,56.39
2019-05-29T12:12:26.973Z,56.40
2019-05-29T12:13:35.062Z,56.31
2019-05-29T12:14:59.055Z,56.38
2019-05-29T12:15:53.995Z,56.66
2019-05-29T12:17:03.111Z,56.45
2019-05-29T12:18:23.551Z,56.51
2019-05-29T12:19:22.354Z,56.20
2019-05-29T12:20:30.717Z,56.14
2019-05-29T12:21:42.596Z,56.25
2019-05-29T12:23:13.364Z,56.32
2019-05-29T12:24:00.267Z,56.16
2019-05-29T12:25:08.558Z,56.17
2019-05-29T12:26:22.831Z,56.29
2019-05-29T12:27:27.421Z,56.54
2019-05-29T12:28:36.198Z,56.63
2019-05-29T12:29:44.129Z,56.74
2019-05-29T12:30:53.547Z,56.28
2019-05-29T12:32:08.347Z,56.43
2019-05-29T12:33:13.710Z,56.12
2019-05-29T12:34:21.802Z,55.84
2019-05-29T12:35:30.431Z,56.00
2019-05-29T12:36:38.472Z,56.21
2019-05-29T12:37:47.582Z,56.13
2019-05-29T12:38:55.744Z,56.15
2019-05-29T12:40:06.375Z,55.67
2019-05-29T12:41:14.745Z,55.83
2019-05-29T12:42:23.575Z,55.73
2019-05-29T12:43:31.506Z,55.83
2019-05-29T12:44:40.310Z,55.85
2019-05-29T12:45:48.409Z,55.83
2019-05-29T12:46:57.747Z,55.83
2019-05-29T12:48:12.488Z,55.84
2019-05-29T12:49:16.805Z,55.87
2019-05-29T12:50:25.008Z,55.86
2019-05-29T12:51:33.763Z,55.71
2019-05-29T12:52:42.303Z,55.87
2019-05-29T12:53:50.971Z,55.29
2019-05-29T12:54:59.997Z,55.56
2019-05-29T12:56:08.904Z,55.50
2019-05-29T12:57:16.965Z,55.72
2019-05-29T12:58:25.605Z,55.99
2019-05-29T12:59:33.763Z,56.02
2019-05-29T13:00:42.637Z,56.06
2019-05-29T13:01:50.583Z,55.58
2019-05-29T13:03:00.745Z,55.46
2019-05-29T13:04:08.827Z,55.57
2019-05-29T13:05:20.916Z,55.60
2019-05-29T13:06:29.308Z,55.57
2019-05-29T13:07:38.321Z,55.81
2019-05-29T13:08:46.322Z,55.80
2019-05-29T13:09:56.719Z,56.10
2019-05-29T13:11:05.170Z,55.87
2019-05-29T13:12:14.338Z,56.07
2019-05-29T13:13:22.502Z,55.98
2019-05-29T13:14:31.475Z,55.85
2019-05-29T13:15:39.504Z,55.49
2019-05-29T13:16:48.625Z,55.28
2019-05-29T13:18:02.444Z,55.48
2019-05-29T13:19:07.685Z,55.51
2019-05-29T13:20:22.342Z,55.46
2019-05-29T13:21:31.569Z,55.49
2019-05-29T13:22:39.596Z,55.90
2019-05-29T13:23:48.177Z,55.88
2019-05-29T13:24:57.357Z,56.01
2019-05-29T13:26:06.455Z,55.81
2019-05-29T13:27:14.445Z,56.00
2019-05-29T13:28:23.222Z,56.08
2019-05-29T13:29:31.269Z,56.25
2019-05-29T13:30:41.265Z,56.47
2019-05-29T13:31:49.235Z,56.53
2019-05-29T13:33:00.086Z,56.47
2019-05-29T13:34:08.102Z,56.63
2019-05-29T13:35:21.552Z,56.66
2019-05-29T13:36:26.953Z,56.81
2019-05-29T13:37:35.871Z,56.95
2019-05-29T13:38:44.121Z,57.08
2019-05-29T13:39:52.836Z,56.97
2019-05-29T13:41:02.551Z,56.86
2019-05-29T13:42:12.245Z,57.10
2019-05-29T13:43:20.644Z,57.21
2019-05-29T13:44:29.277Z,57.18
2019-05-29T13:45:37.191Z,56.89
2019-05-29T13:46:45.932Z,56.72
2019-05-29T13:47:54.069Z,56.91
2019-05-29T13:49:02.960Z,57.14
2019-05-29T13:50:13.883Z,57.18
2019-05-29T13:51:22.686Z,56.74
2019-05-29T13:52:30.720Z,56.77
2019-05-29T13:53:39.470Z,56.78
2019-05-29T13:54:47.341Z,56.72
2019-05-29T13:55:57.708Z,56.80
2019-05-29T13:57:06.802Z,56.80
2019-05-29T13:58:19.890Z,56.77
2019-05-29T13:59:28.073Z,56.72
2019-05-29T14:00:36.987Z,56.59
2019-05-29T14:01:48.293Z,56.78
2019-05-29T14:02:55.928Z,56.58
2019-05-29T14:04:05.131Z,56.54
2019-05-29T14:05:17.650Z,56.62
2019-05-29T14:06:25.846Z,56.64
2019-05-29T14:07:34.978Z,56.65
2019-05-29T14:08:43.187Z,56.36
2019-05-29T14:09:52.085Z,55.80
2019-05-29T14:11:00.856Z,55.81
2019-05-29T14:12:09.855Z,56.02
2019-05-29T14:13:18.117Z,56.00
2019-05-29T14:14:27.127Z,56.02
2019-05-29T14:15:35.709Z,56.17
2019-05-29T14:16:44.519Z,56.05
2019-05-29T14:17:52.818Z,56.31
2019-05-29T14:19:02.804Z,56.36
2019-05-29T14:20:13.380Z,56.55
2019-05-29T14:21:21.968Z,55.80
2019-05-29T14:22:30.330Z,55.50
2019-05-29T14:23:40.050Z,56.12
2019-05-29T14:24:48.243Z,55.84
2019-05-29T14:25:57.072Z,55.81
2019-05-29T14:27:05.723Z,55.82
2019-05-29T14:28:14.662Z,55.53
2019-05-29T14:29:22.861Z,55.62
2019-05-29T14:30:32.004Z,55.53
2019-05-29T14:31:40.772Z,55.38
2019-05-29T14:32:49.687Z,55.64
2019-05-29T14:33:57.777Z,55.27
2019-05-29T14:35:11.159Z,55.65
2019-05-29T14:36:19.957Z,55.57
2019-05-29T14:37:28.880Z,55.54
2019-05-29T14:38:37.064Z,55.34
2019-05-29T14:39:45.586Z,55.50
2019-05-29T14:40:53.722Z,55.51
2019-05-29T14:42:04.191Z,55.57
2019-05-29T14:43:15.357Z,55.70
2019-05-29T14:44:22.971Z,55.58
2019-05-29T14:45:31.030Z,55.25
2019-05-29T14:46:39.475Z,55.51
2019-05-29T14:47:47.745Z,55.78
2019-05-29T14:48:56.616Z,55.56
2019-05-29T14:50:08.814Z,55.45